• Join FlightAware (Why Join?)
  • Login
  • US Flag 
01:40PM EDT


 

Airport Tracker/Info


-or-


 

Live Flight TrackerFlight Track Log ✈ N1926A ✈ 13-Nov-2013 ✈ KLAF - KPWK

Flight Track Log - Related Links

Times and Time Zones

All times are in EST time to prevent confusion due to time zone crossing. See the N1926A flight status page for this flight to view local times or setup timezone preferences in your user account.

Time Position Orientation Groundspeed Altitude Reporting Facility
EST Latitude Longitude Course Direction KTS MPH feet Rate Location/Type
09:52AM 40.4428 -86.9711 357° North 179 206 2,600  Level Chicago Center
09:53AM 40.4792 -86.9881 340° North 179 206 3,700 1,560 Climbing Chicago Center
09:53AM 40.4919 -86.9961 334° Northwest 180 207 4,200 1,140 Climbing Chicago Center
09:54AM 40.5322 -87.0072 348° North 201 231 4,900 960 Climbing Chicago Center
09:55AM 40.5869 -87.0303 342° North 205 236 6,000 1,080 Climbing Chicago Center
09:56AM 40.6392 -87.0642 334° Northwest 208 239 7,200 1,080 Climbing Chicago Center
09:57AM 40.6914 -87.0967 335° Northwest 208 239 8,300 1,200 Climbing Chicago Center
09:58AM 40.7544 -87.1372 334° Northwest 209 241 9,700 720 Climbing Chicago Center
09:59AM 40.8092 -87.1714 335° Northwest 216 249 9,900 60 Climbing Chicago Center
10:00AM 40.8661 -87.2056 336° Northwest 225 259 9,900  Level Chicago Center
10:01AM 40.9231 -87.2392 336° Northwest 224 258 9,900 -60 Level Chicago Center
10:02AM 40.9817 -87.2703 338° Northwest 228 262 9,800 -60 Descending Chicago Center
10:03AM 41.0561 -87.2850 352° North 225 259 9,800 -60 Level Chicago Center
10:04AM 41.1161 -87.3056 346° North 224 258 9,700 -660 Descending Chicago Center
10:05AM 41.1858 -87.2967 North 258 297 8,500 -1,860 Descending Chicago Center
10:06AM 41.2581 -87.2864 North 259 298 5,900 -2,280 Descending Chicago Center
10:07AM 41.3375 -87.2800 North 273 314 3,900 -1,020 Descending Chicago Center
10:08AM 41.4208 -87.2825 359° North 266 306 3,900  Level Chicago Center
10:09AM 41.4842 -87.2811 North 247 284 4,000  Climbing Chicago Center
10:10AM 41.5483 -87.2769 North 235 270 4,000 -240 Level Chicago Center
10:11AM 41.6128 -87.2861 354° North 233 268 3,600 -540 Descending Chicago Center
10:12AM 41.6717 -87.3256 333° Northwest 243 280 3,000 -300 Descending Chicago Center
10:13AM 41.7419 -87.3672 336° Northwest 237 273 3,000  Level Chicago Center
10:14AM 41.7986 -87.4011 336° Northwest 231 266 3,000  Level Chicago Center
10:16AM 41.8558 -87.4311 339° North 227 261 3,000  Level Chicago Center
10:17AM 41.9136 -87.4611 339° North 225 259 3,000  Level Chicago Center
10:18AM 41.9706 -87.4903 339° North 223 257 3,000  Level Chicago Center
10:19AM 42.0292 -87.5192 340° North 223 257 3,000 -180 Level Chicago Center
10:20AM 42.0994 -87.5547 339° North 225 259 2,700 -300 Descending Chicago Center
10:21AM 42.1611 -87.5853 340° North 229 264 2,400 -180 Descending Chicago Center
10:22AM 42.2078 -87.6419 318° Northwest 225 259 2,400  Level Chicago Center
10:23AM 42.2153 -87.7011 280° West 202 232 2,400  Level Chicago Center
10:24AM 42.2169 -87.7522 273° West 168 193 2,400  Level Chicago Center
10:25AM 42.2194 -87.8092 273° West 144 166 2,400  Level Chicago Center
10:26AM 42.2183 -87.8553 268° West 134 154 2,400 -120 Level Chicago Center
10:27AM 42.1992 -87.8908 234° Southwest 124 143 2,200 -180 Descending Chicago Center
10:28AM 42.1792 -87.9214 229° Southwest 122 140 2,100 -120 Descending Chicago Center
10:31AM 42.1143 -87.9015 166° South  Level Estimated